createdAt,value
2023-05-05T00:00:52.039Z,3.88
2023-05-05T00:03:20.702Z,6.47
2023-05-05T00:05:49.624Z,4.00
2023-05-05T00:08:17.106Z,5.65
2023-05-05T00:10:47.950Z,5.45
2023-05-05T00:13:15.164Z,5.60
2023-05-05T00:15:43.302Z,7.15
2023-05-05T00:18:11.043Z,7.03
2023-05-05T00:20:37.894Z,5.40
2023-05-05T00:23:04.724Z,6.60
2023-05-05T00:25:31.637Z,7.43
2023-05-05T00:27:58.478Z,4.60
2023-05-05T00:30:25.565Z,5.05
2023-05-05T00:32:52.411Z,8.23
2023-05-05T00:35:19.446Z,5.35
2023-05-05T00:37:46.492Z,6.65
2023-05-05T00:40:13.657Z,4.40
2023-05-05T00:42:45.867Z,6.60
2023-05-05T00:45:14.368Z,4.97
2023-05-05T00:47:48.098Z,4.45
2023-05-05T00:50:29.345Z,5.25
2023-05-05T00:53:02.048Z,7.25
2023-05-05T00:55:29.978Z,4.97
2023-05-05T00:58:00.739Z,5.20
2023-05-05T01:00:29.058Z,5.35
2023-05-05T01:02:56.965Z,6.78
2023-05-05T01:05:25.961Z,5.75
2023-05-05T01:08:03.150Z,6.13
2023-05-05T01:10:45.663Z,5.97
2023-05-05T01:13:42.848Z,5.30
2023-05-05T01:16:19.156Z,4.72
2023-05-05T01:19:19.313Z,6.90
2023-05-05T01:21:56.171Z,7.03
2023-05-05T01:24:50.356Z,5.07
2023-05-05T01:27:32.258Z,6.10
2023-05-05T01:30:08.799Z,5.88
2023-05-05T01:32:47.945Z,6.40
2023-05-05T01:35:50.228Z,5.55
2023-05-05T01:38:25.170Z,5.82
2023-05-05T01:41:00.035Z,5.05
2023-05-05T01:43:30.773Z,6.63
2023-05-05T01:45:59.485Z,4.78
2023-05-05T01:48:26.515Z,5.20
2023-05-05T01:50:54.155Z,6.57
2023-05-05T01:53:24.802Z,11.65
2023-05-05T01:55:54.678Z,4.90
2023-05-05T01:58:23.539Z,5.85
2023-05-05T02:00:51.936Z,5.32
2023-05-05T02:03:20.885Z,4.45
2023-05-05T02:05:49.788Z,4.75
2023-05-05T02:10:45.289Z,6.07
2023-05-05T02:13:14.000Z,7.60
2023-05-05T02:15:43.353Z,7.00
2023-05-05T02:18:11.321Z,4.43
2023-05-05T02:20:39.915Z,8.60
2023-05-05T02:25:43.495Z,6.22
2023-05-05T02:28:18.434Z,5.45
2023-05-05T02:30:59.770Z,8.07
2023-05-05T02:33:32.837Z,4.55
2023-05-05T02:36:18.448Z,7.10
2023-05-05T02:38:58.138Z,5.80
2023-05-05T02:41:29.123Z,12.93
2023-05-05T02:44:00.084Z,5.53
2023-05-05T02:46:28.747Z,5.07
2023-05-05T02:48:55.531Z,6.32
2023-05-05T02:51:22.296Z,7.28
2023-05-05T02:53:49.135Z,5.85
2023-05-05T02:56:41.105Z,5.35
2023-05-05T03:02:12.550Z,5.25
2023-05-05T03:04:47.001Z,8.35
2023-05-05T03:07:21.423Z,4.93
2023-05-05T03:10:03.584Z,6.18
2023-05-05T03:12:46.657Z,4.90
2023-05-05T03:15:26.486Z,9.90
2023-05-05T03:17:55.083Z,5.28
2023-05-05T03:20:22.955Z,6.38
2023-05-05T03:22:51.464Z,5.65
2023-05-05T03:25:18.551Z,7.07
2023-05-05T03:27:45.473Z,4.78
2023-05-05T03:30:15.582Z,10.23
2023-05-05T03:32:48.593Z,5.70
2023-05-05T03:35:15.893Z,6.75
2023-05-05T03:37:42.849Z,4.30
2023-05-05T03:40:10.760Z,5.57
2023-05-05T03:42:37.458Z,7.90
2023-05-05T03:45:04.691Z,5.50
2023-05-05T03:47:31.475Z,6.28
2023-05-05T03:49:58.240Z,6.05
2023-05-05T03:52:25.622Z,6.28
2023-05-05T03:54:54.220Z,5.65
2023-05-05T03:57:21.051Z,5.95
2023-05-05T03:59:48.477Z,6.90
2023-05-05T04:02:18.299Z,5.22
2023-05-05T04:04:45.871Z,4.85
2023-05-05T04:07:13.115Z,5.90
2023-05-05T04:09:44.572Z,6.97
2023-05-05T04:12:12.434Z,5.18
2023-05-05T04:14:39.710Z,5.55
2023-05-05T04:17:06.544Z,5.13
2023-05-05T04:19:33.703Z,5.20
2023-05-05T04:22:02.332Z,5.05
2023-05-05T04:24:29.615Z,6.35
2023-05-05T04:26:56.421Z,6.93
2023-05-05T04:29:23.557Z,4.80
2023-05-05T04:31:50.915Z,5.55
2023-05-05T04:34:18.180Z,5.50
2023-05-05T04:36:44.901Z,4.40
2023-05-05T04:39:11.995Z,6.32
2023-05-05T04:41:39.120Z,5.93
2023-05-05T04:44:06.243Z,6.55
2023-05-05T04:46:34.845Z,5.82
2023-05-05T04:49:03.427Z,4.82
2023-05-05T04:51:32.223Z,5.03
2023-05-05T04:53:59.017Z,6.25
2023-05-05T04:56:25.812Z,5.45
2023-05-05T04:58:52.477Z,4.88
2023-05-05T05:01:19.217Z,5.53
2023-05-05T05:03:46.276Z,3.78
2023-05-05T05:06:13.109Z,4.50
2023-05-05T05:08:39.806Z,5.50
2023-05-05T05:11:06.589Z,6.13
2023-05-05T05:13:33.316Z,5.20
2023-05-05T05:16:01.316Z,5.22
2023-05-05T05:18:28.401Z,6.25
2023-05-05T05:20:55.491Z,5.55
2023-05-05T05:23:22.286Z,7.22
2023-05-05T05:25:49.254Z,3.90
2023-05-05T05:28:18.215Z,4.80
2023-05-05T05:30:55.761Z,4.13
2023-05-05T05:33:23.015Z,3.97
2023-05-05T05:35:50.905Z,5.53
2023-05-05T05:38:20.101Z,4.60
2023-05-05T05:40:48.495Z,3.95
2023-05-05T05:43:15.450Z,9.98
2023-05-05T05:45:42.856Z,3.83
2023-05-05T05:48:10.233Z,4.05
2023-05-05T05:50:37.547Z,5.30
2023-05-05T05:53:04.557Z,4.07
2023-05-05T05:55:31.735Z,4.03
2023-05-05T05:57:58.954Z,4.05
2023-05-05T06:00:27.081Z,9.85
2023-05-05T06:03:01.457Z,4.47
2023-05-05T06:05:31.509Z,4.85
2023-05-05T06:07:58.508Z,5.05
2023-05-05T06:10:28.221Z,5.07
2023-05-05T06:13:02.108Z,4.85
2023-05-05T06:15:30.286Z,5.55
2023-05-05T06:17:57.611Z,3.95
2023-05-05T06:20:24.950Z,3.40
2023-05-05T06:22:51.818Z,5.63
2023-05-05T06:25:18.989Z,6.32
2023-05-05T06:27:46.451Z,5.63
2023-05-05T06:30:14.793Z,7.22
2023-05-05T06:32:41.594Z,5.55
2023-05-05T06:35:09.049Z,3.50
2023-05-05T06:37:35.995Z,3.40
2023-05-05T06:40:02.761Z,4.55
2023-05-05T06:42:30.890Z,6.47
2023-05-05T06:44:58.570Z,4.03
2023-05-05T06:47:25.702Z,3.80
2023-05-05T06:49:52.438Z,5.38
2023-05-05T06:52:19.205Z,5.13
2023-05-05T06:54:45.972Z,2.72
2023-05-05T06:57:12.730Z,6.95
2023-05-05T06:59:39.490Z,2.85
2023-05-05T07:02:06.573Z,6.40
2023-05-05T07:04:33.254Z,4.18
2023-05-05T07:07:00.384Z,3.78
2023-05-05T07:09:27.189Z,14.13
2023-05-05T07:11:53.911Z,4.63
2023-05-05T07:14:22.757Z,6.10
2023-05-05T07:16:51.550Z,8.13
2023-05-05T07:19:18.337Z,5.10
2023-05-05T07:21:45.162Z,4.30
2023-05-05T07:24:11.939Z,4.97
2023-05-05T07:26:39.040Z,6.40
2023-05-05T07:29:07.125Z,4.97
2023-05-05T07:31:34.083Z,4.57
2023-05-05T07:34:01.130Z,5.90
2023-05-05T07:36:28.478Z,4.55
2023-05-05T07:38:55.573Z,10.30
2023-05-05T07:41:22.602Z,5.72
2023-05-05T07:43:49.340Z,8.40
2023-05-05T07:46:16.400Z,5.22
2023-05-05T07:48:43.143Z,5.32
2023-05-05T07:51:11.275Z,4.35
2023-05-05T07:53:38.077Z,5.82
2023-05-05T07:56:04.851Z,5.40
2023-05-05T07:58:31.548Z,5.80
2023-05-05T08:00:58.260Z,5.25
2023-05-05T08:03:25.471Z,5.70
2023-05-05T08:05:54.965Z,6.05
2023-05-05T08:08:24.812Z,6.10
2023-05-05T08:10:53.382Z,6.47
2023-05-05T08:13:20.443Z,5.35
2023-05-05T08:15:47.608Z,5.90
2023-05-05T08:18:15.112Z,5.90
2023-05-05T08:20:41.930Z,8.45
2023-05-05T08:23:08.582Z,5.53
2023-05-05T08:25:35.561Z,4.18
2023-05-05T08:28:02.638Z,5.72
2023-05-05T08:30:29.617Z,6.85
2023-05-05T08:32:56.542Z,6.13
2023-05-05T08:35:23.964Z,6.38
2023-05-05T08:37:51.929Z,9.15
2023-05-05T08:40:21.045Z,3.70
2023-05-05T08:42:48.141Z,5.38
2023-05-05T08:45:16.305Z,5.10
2023-05-05T08:47:43.711Z,4.88
2023-05-05T08:50:11.374Z,5.75
2023-05-05T08:52:41.405Z,9.65
2023-05-05T08:55:26.591Z,6.22
2023-05-05T08:57:58.187Z,6.90
2023-05-05T09:00:27.274Z,5.50
2023-05-05T09:02:59.225Z,5.25
2023-05-05T09:05:27.313Z,6.97
2023-05-05T09:07:54.141Z,4.72
2023-05-05T09:10:21.643Z,5.85
2023-05-05T09:12:51.606Z,5.57
2023-05-05T09:15:18.573Z,4.80
2023-05-05T09:17:45.513Z,5.03
2023-05-05T09:20:14.090Z,4.93
2023-05-05T09:22:45.640Z,5.13
2023-05-05T09:25:17.263Z,4.22
2023-05-05T09:27:46.626Z,5.07
2023-05-05T09:30:26.982Z,5.20
2023-05-05T09:32:55.559Z,5.63
2023-05-05T09:35:23.337Z,7.70
2023-05-05T09:37:50.295Z,6.25
2023-05-05T09:40:19.083Z,7.10
2023-05-05T09:42:46.253Z,6.07
2023-05-05T09:45:19.022Z,9.25
2023-05-05T09:47:47.348Z,7.88
2023-05-05T09:50:21.644Z,7.18
2023-05-05T09:52:59.923Z,5.70
2023-05-05T09:55:27.246Z,7.05
2023-05-05T09:57:54.276Z,6.88
2023-05-05T10:00:22.009Z,6.93
2023-05-05T10:02:48.953Z,6.72
2023-05-05T10:05:19.185Z,6.82
2023-05-05T10:07:47.619Z,6.70
2023-05-05T10:10:17.194Z,8.05
2023-05-05T10:12:46.697Z,8.45
2023-05-05T10:15:15.784Z,8.48
2023-05-05T10:20:20.765Z,7.78
2023-05-05T10:22:53.149Z,7.45
2023-05-05T10:25:46.052Z,6.25
2023-05-05T10:28:22.288Z,8.32
2023-05-05T10:30:54.473Z,7.40
2023-05-05T10:33:32.393Z,7.20
2023-05-05T10:36:02.564Z,7.88
2023-05-05T10:38:34.031Z,8.82
2023-05-05T10:41:02.308Z,6.95
2023-05-05T10:43:31.436Z,8.55
2023-05-05T10:45:59.315Z,7.70
2023-05-05T10:48:40.616Z,7.32
2023-05-05T10:51:07.476Z,7.13
2023-05-05T10:53:48.981Z,9.27
2023-05-05T10:56:27.017Z,8.77
2023-05-05T10:59:00.192Z,9.80
2023-05-05T11:01:32.428Z,7.75
2023-05-05T11:04:22.191Z,6.38
2023-05-05T11:07:14.760Z,8.30
2023-05-05T11:09:58.991Z,6.65
2023-05-05T11:12:25.793Z,7.93
2023-05-05T11:15:28.246Z,10.32
2023-05-05T11:17:56.659Z,7.75
2023-05-05T11:20:43.981Z,9.05
2023-05-05T11:23:10.656Z,8.90
2023-05-05T11:25:37.905Z,8.63
2023-05-05T11:28:15.156Z,8.55
2023-05-05T11:30:58.149Z,8.65
2023-05-05T11:33:38.906Z,8.82
2023-05-05T11:36:10.391Z,7.90
2023-05-05T11:39:21.413Z,8.02
2023-05-05T11:42:00.038Z,8.32
2023-05-05T11:44:31.786Z,7.60
2023-05-05T11:47:02.354Z,10.07
2023-05-05T11:49:39.688Z,9.38
2023-05-05T11:52:13.109Z,13.63
2023-05-05T11:54:51.044Z,9.30
2023-05-05T11:57:21.902Z,7.55
2023-05-05T11:59:56.449Z,10.15
2023-05-05T12:02:24.184Z,11.32
2023-05-05T12:04:51.329Z,7.00
2023-05-05T12:07:19.505Z,7.95
2023-05-05T12:12:13.915Z,6.68
2023-05-05T12:14:53.936Z,8.00
2023-05-05T12:17:21.854Z,8.45
2023-05-05T12:19:52.828Z,10.90
2023-05-05T12:22:25.025Z,10.07
2023-05-05T12:24:59.152Z,8.13
2023-05-05T12:27:27.883Z,11.75
2023-05-05T12:29:56.642Z,8.93
2023-05-05T12:32:25.392Z,8.18
2023-05-05T12:34:57.749Z,12.63
2023-05-05T12:37:26.151Z,10.45
2023-05-05T12:39:56.636Z,8.35
2023-05-05T12:42:23.476Z,7.47
2023-05-05T12:44:50.321Z,8.68
2023-05-05T12:47:31.672Z,10.85
2023-05-05T12:50:00.301Z,9.60
2023-05-05T12:52:45.744Z,10.50
2023-05-05T12:57:57.975Z,9.82
2023-05-05T13:00:27.586Z,9.57
2023-05-05T13:02:54.362Z,9.00
2023-05-05T13:05:36.348Z,12.00
2023-05-05T13:08:03.146Z,11.05
2023-05-05T13:10:31.488Z,11.77
2023-05-05T13:12:58.595Z,9.35
2023-05-05T13:15:26.173Z,8.35
2023-05-05T13:18:00.304Z,7.60
2023-05-05T13:20:27.401Z,9.63
2023-05-05T13:22:54.426Z,9.05
2023-05-05T13:25:21.143Z,8.70
2023-05-05T13:27:47.771Z,6.93
2023-05-05T13:30:14.794Z,9.98
2023-05-05T13:32:41.650Z,9.73
2023-05-05T13:35:09.472Z,8.05
2023-05-05T13:40:03.669Z,7.75
2023-05-05T13:42:30.340Z,13.48
2023-05-05T13:44:57.087Z,7.47
2023-05-05T13:47:23.972Z,9.30
2023-05-05T13:49:50.808Z,7.63
2023-05-05T13:52:18.550Z,6.55
2023-05-05T13:54:45.320Z,5.20
2023-05-05T13:57:12.402Z,7.45
2023-05-05T13:59:39.144Z,11.00
2023-05-05T14:02:06.357Z,6.43
2023-05-05T14:04:33.228Z,8.57
2023-05-05T14:07:01.196Z,6.38
2023-05-05T14:09:27.972Z,5.78
2023-05-05T14:11:54.720Z,11.52
2023-05-05T14:14:21.795Z,7.43
2023-05-05T14:16:50.193Z,7.07
2023-05-05T14:19:17.236Z,9.25
2023-05-05T14:21:44.010Z,7.03
2023-05-05T14:24:11.227Z,7.55
2023-05-05T14:26:38.447Z,7.38
2023-05-05T14:29:05.156Z,5.97
2023-05-05T14:31:31.850Z,8.85
2023-05-05T14:33:58.512Z,5.43
2023-05-05T14:36:25.419Z,6.70
2023-05-05T14:38:52.224Z,6.20
2023-05-05T14:41:19.097Z,8.00
2023-05-05T14:43:45.828Z,10.57
2023-05-05T14:46:12.589Z,9.57
2023-05-05T14:48:39.349Z,7.40
2023-05-05T14:51:06.304Z,10.10
2023-05-05T14:53:34.175Z,7.15
2023-05-05T14:58:28.920Z,9.52
2023-05-05T15:00:55.814Z,7.25
2023-05-05T15:03:22.972Z,7.88
2023-05-05T15:05:49.909Z,5.78
2023-05-05T15:08:18.731Z,7.30
2023-05-05T15:10:46.162Z,6.95
2023-05-05T15:13:13.228Z,8.65
2023-05-05T15:15:40.098Z,7.72
2023-05-05T15:18:07.189Z,6.22
2023-05-05T15:20:33.971Z,6.75
2023-05-05T15:23:01.418Z,6.45
2023-05-05T15:25:28.155Z,9.00
2023-05-05T15:27:54.866Z,7.40
2023-05-05T15:30:21.852Z,7.28
2023-05-05T15:32:48.543Z,7.53
2023-05-05T15:35:15.538Z,6.93
2023-05-05T15:37:42.916Z,7.32
2023-05-05T15:40:10.084Z,7.63
2023-05-05T15:42:37.589Z,8.05
2023-05-05T15:45:05.218Z,6.80
2023-05-05T15:47:31.962Z,11.38
2023-05-05T15:49:58.776Z,7.70
2023-05-05T15:52:25.731Z,7.20
2023-05-05T15:54:52.436Z,7.03
2023-05-05T15:57:19.324Z,9.75
2023-05-05T15:59:46.553Z,6.38
2023-05-05T16:02:13.265Z,7.78
2023-05-05T16:04:39.912Z,7.90
2023-05-05T16:07:06.727Z,7.50
2023-05-05T16:09:33.458Z,6.32
2023-05-05T16:12:00.286Z,6.93
2023-05-05T16:14:27.978Z,6.75
2023-05-05T16:16:56.413Z,7.43
2023-05-05T16:19:26.034Z,9.18
2023-05-05T16:21:56.520Z,9.32
2023-05-05T16:24:23.442Z,6.60
2023-05-05T16:26:50.096Z,6.82
2023-05-05T16:29:17.162Z,7.53
2023-05-05T16:31:43.868Z,8.65
2023-05-05T16:34:10.598Z,10.13
2023-05-05T16:36:37.330Z,8.93
2023-05-05T16:39:04.171Z,7.72
2023-05-05T16:41:31.258Z,8.20
2023-05-05T16:43:57.961Z,6.30
2023-05-05T16:46:24.800Z,9.50
2023-05-05T16:48:51.574Z,9.13
2023-05-05T16:51:18.590Z,6.40
2023-05-05T16:53:46.669Z,7.15
2023-05-05T16:56:15.349Z,9.45
2023-05-05T16:58:42.076Z,8.30
2023-05-05T17:01:08.826Z,6.95
2023-05-05T17:03:36.111Z,9.27
2023-05-05T17:06:03.248Z,5.63
2023-05-05T17:08:30.171Z,4.82
2023-05-05T17:10:57.134Z,7.95
2023-05-05T17:13:24.194Z,9.65
2023-05-05T17:15:51.452Z,5.25
2023-05-05T17:18:21.157Z,7.45
2023-05-05T17:20:49.622Z,5.50
2023-05-05T17:23:17.020Z,4.78
2023-05-05T17:25:43.823Z,5.45
2023-05-05T17:28:10.673Z,3.95
2023-05-05T17:30:37.701Z,6.43
2023-05-05T17:33:04.458Z,5.45
2023-05-05T17:35:31.685Z,5.90
2023-05-05T17:37:58.478Z,5.22
2023-05-05T17:40:25.086Z,3.58
2023-05-05T17:42:51.911Z,5.75
2023-05-05T17:45:18.702Z,4.40
2023-05-05T17:47:45.774Z,3.72
2023-05-05T17:50:12.506Z,3.53
2023-05-05T17:52:40.571Z,4.05
2023-05-05T17:55:08.076Z,5.35
2023-05-05T17:57:35.435Z,6.13
2023-05-05T18:00:09.357Z,6.93
2023-05-05T18:02:42.818Z,6.47
2023-05-05T18:05:11.010Z,4.45
2023-05-05T18:07:38.872Z,7.50
2023-05-05T18:10:10.715Z,7.13
2023-05-05T18:12:37.596Z,5.82
2023-05-05T18:15:05.733Z,5.55
2023-05-05T18:17:32.871Z,4.05
2023-05-05T18:19:59.849Z,6.05
2023-05-05T18:22:26.643Z,3.90
2023-05-05T18:24:58.951Z,6.82
2023-05-05T18:27:26.950Z,5.40
2023-05-05T18:29:54.210Z,3.25
2023-05-05T18:32:21.765Z,4.47
2023-05-05T18:34:48.838Z,3.20
2023-05-05T18:37:15.560Z,4.47
2023-05-05T18:39:44.013Z,6.13
2023-05-05T18:42:12.807Z,3.42
2023-05-05T18:44:39.749Z,2.65
2023-05-05T18:47:06.999Z,3.30
2023-05-05T18:49:33.975Z,3.50
2023-05-05T18:52:01.013Z,4.28
2023-05-05T18:54:27.728Z,3.67
2023-05-05T18:56:54.573Z,5.20
2023-05-05T18:59:21.808Z,3.05
2023-05-05T19:01:48.440Z,3.33
2023-05-05T19:04:29.491Z,3.10
2023-05-05T19:06:57.817Z,4.07
2023-05-05T19:09:24.485Z,2.50
2023-05-05T19:11:51.580Z,4.10
2023-05-05T19:14:18.316Z,4.22
2023-05-05T19:16:45.337Z,4.15
2023-05-05T19:19:12.059Z,2.97
2023-05-05T19:21:38.766Z,4.20
2023-05-05T19:24:08.167Z,3.28
2023-05-05T19:26:34.974Z,3.72
2023-05-05T19:29:01.896Z,3.55
2023-05-05T19:31:31.046Z,3.22
2023-05-05T19:34:01.683Z,4.65
2023-05-05T19:36:28.742Z,6.45
2023-05-05T19:38:55.832Z,4.47
2023-05-05T19:41:22.821Z,6.22
2023-05-05T19:43:50.062Z,5.47
2023-05-05T19:46:17.497Z,7.15
2023-05-05T19:48:44.412Z,4.65
2023-05-05T19:51:11.078Z,6.32
2023-05-05T19:53:40.054Z,4.40
2023-05-05T19:56:07.085Z,5.10
2023-05-05T19:59:00.676Z,4.25
2023-05-05T20:01:29.005Z,6.15
2023-05-05T20:03:57.644Z,5.38
2023-05-05T20:06:24.722Z,5.57
2023-05-05T20:08:51.517Z,4.32
2023-05-05T20:11:19.734Z,4.20
2023-05-05T20:16:14.827Z,4.90
2023-05-05T20:21:08.200Z,3.65
2023-05-05T20:23:35.122Z,8.30
2023-05-05T20:26:02.160Z,5.90
2023-05-05T20:28:30.136Z,3.70
2023-05-05T20:30:56.899Z,5.82
2023-05-05T20:33:23.579Z,5.15
2023-05-05T20:35:50.644Z,5.47
2023-05-05T20:38:17.392Z,7.45
2023-05-05T20:40:44.109Z,6.35
2023-05-05T20:43:10.788Z,7.47
2023-05-05T20:45:38.132Z,5.90
2023-05-05T20:48:07.331Z,5.22
2023-05-05T20:50:37.537Z,3.90
2023-05-05T20:53:05.202Z,4.93
2023-05-05T20:55:32.590Z,4.55
2023-05-05T20:57:59.333Z,3.92
2023-05-05T21:00:26.416Z,5.97
2023-05-05T21:02:53.623Z,4.30
2023-05-05T21:05:20.700Z,5.13
2023-05-05T21:07:47.785Z,8.15
2023-05-05T21:10:14.556Z,4.05
2023-05-05T21:12:41.702Z,4.60
2023-05-05T21:15:09.672Z,3.80
2023-05-05T21:17:36.762Z,8.95
2023-05-05T21:20:03.800Z,4.10
2023-05-05T21:22:30.755Z,3.88
2023-05-05T21:25:18.182Z,4.57
2023-05-05T21:27:45.252Z,4.60
2023-05-05T21:30:12.623Z,4.32
2023-05-05T21:32:40.358Z,4.50
2023-05-05T21:35:08.194Z,6.53
2023-05-05T21:37:39.161Z,7.60
2023-05-05T21:40:13.460Z,16.70
2023-05-05T21:42:41.441Z,6.70
2023-05-05T21:45:08.926Z,10.98
2023-05-05T21:47:35.768Z,6.63
2023-05-05T21:50:02.657Z,7.97
2023-05-05T21:52:29.391Z,6.22
2023-05-05T21:54:56.075Z,2.13
2023-05-05T21:57:22.878Z,1.58
2023-05-05T21:59:49.608Z,3.67
2023-05-05T22:02:16.709Z,1.20
2023-05-05T22:04:46.298Z,4.13
2023-05-05T22:07:13.048Z,3.13
2023-05-05T22:09:39.873Z,1.35
2023-05-05T22:12:06.820Z,0.75
2023-05-05T22:14:33.539Z,1.13
2023-05-05T22:17:00.470Z,0.85
2023-05-05T22:19:27.184Z,1.98
2023-05-05T22:21:53.821Z,0.80
2023-05-05T22:24:20.709Z,1.73
2023-05-05T22:26:47.403Z,0.65
2023-05-05T22:29:14.082Z,1.05
2023-05-05T22:31:41.004Z,2.45
2023-05-05T22:34:07.931Z,3.03
2023-05-05T22:36:34.650Z,0.82
2023-05-05T22:39:01.275Z,1.00
2023-05-05T22:41:28.002Z,1.88
2023-05-05T22:43:54.769Z,0.45
2023-05-05T22:46:21.553Z,1.48
2023-05-05T22:48:51.085Z,0.50
2023-05-05T22:51:18.244Z,0.95
2023-05-05T22:53:45.208Z,0.57
2023-05-05T22:56:11.924Z,1.40
2023-05-05T22:58:38.994Z,1.38
2023-05-05T23:01:05.755Z,1.63
2023-05-05T23:03:32.479Z,2.70
2023-05-05T23:05:59.138Z,1.75
2023-05-05T23:08:25.973Z,1.08
2023-05-05T23:10:53.370Z,2.08
2023-05-05T23:13:20.146Z,2.45
2023-05-05T23:15:46.844Z,1.35
2023-05-05T23:18:13.628Z,0.73
2023-05-05T23:20:40.439Z,1.63
2023-05-05T23:23:07.123Z,1.42
2023-05-05T23:25:34.297Z,1.20
2023-05-05T23:28:01.053Z,1.63
2023-05-05T23:30:27.819Z,0.90
2023-05-05T23:32:54.935Z,1.33
2023-05-05T23:35:21.757Z,1.30
2023-05-05T23:37:49.266Z,2.75
2023-05-05T23:40:15.912Z,3.17
2023-05-05T23:42:42.614Z,1.48
2023-05-05T23:45:10.183Z,1.63
2023-05-05T23:47:37.163Z,1.80
2023-05-05T23:50:04.181Z,1.38
2023-05-05T23:52:30.866Z,4.63
2023-05-05T23:54:57.539Z,2.63
2023-05-05T23:57:24.594Z,1.52
2023-05-05T23:59:51.262Z,1.10
